Time;durP1;ratioP1;P1;durP2;ratioP2;P2;SDS_P1;SDS_P2;PMS_P1;PMS_P2;Temp;Humidity;BMP_temperature;BMP_pressure;BME280_temperature;BME280_humidity;BME280_pressure;Samples;Min_cycle;Max_cycle;Signal;HPM_P1;HPM_P2
2023/03/09 00:00:54;;;;;;;2.88;0.90;;;11.00;99.90;;;;;;4945988;29;20031;-71
2023/03/09 00:03:19;;;;;;;3.95;0.88;;;11.00;99.90;;;;;;4943622;29;20338;-70
2023/03/09 00:05:57;;;;;;;5.10;1.00;;;11.00;99.90;;;;;;4944427;29;20042;-69
2023/03/09 00:08:23;;;;;;;5.38;0.90;;;11.00;99.90;;;;;;4943842;29;20048;-69
2023/03/09 00:10:52;;;;;;;2.80;0.90;;;11.00;99.90;;;;;;4944267;29;20341;-69
2023/03/09 00:13:21;;;;;;;4.18;1.02;;;11.10;99.90;;;;;;4943643;29;20062;-71
2023/03/09 00:15:50;;;;;;;3.15;1.08;;;11.10;99.90;;;;;;4947859;29;20043;-71
2023/03/09 00:18:17;;;;;;;;;;;11.10;99.90;;;;;;4948274;29;20051;-69
2023/03/09 00:20:42;;;;;;;4.07;0.90;;;11.10;99.90;;;;;;4947562;29;19913;-71
2023/03/09 00:23:08;;;;;;;3.28;0.82;;;11.10;99.90;;;;;;4947712;29;20031;-71
2023/03/09 00:25:34;;;;;;;4.18;0.95;;;11.00;99.90;;;;;;4947281;29;20024;-71
2023/03/09 00:28:00;;;;;;;3.13;0.77;;;11.00;99.90;;;;;;4946471;29;20043;-71
2023/03/09 00:30:26;;;;;;;4.03;0.65;;;11.10;99.90;;;;;;4946795;29;20113;-70
2023/03/09 06:02:51;;;;;;;7.15;1.67;;;9.80;99.90;;;;;;5314209;23;20074;-70
2023/03/09 06:05:23;;;;;;;3.72;0.95;;;9.80;99.90;;;;;;4944736;29;20045;-70
2023/03/09 06:07:51;;;;;;;6.32;1.13;;;9.80;99.90;;;;;;4949629;29;20027;-69
2023/03/09 06:10:17;;;;;;;4.45;0.88;;;9.70;99.90;;;;;;4954574;29;20031;-68
2023/03/09 06:12:43;;;;;;;5.50;1.30;;;9.70;99.90;;;;;;4964331;28;20034;-68
2023/03/09 06:15:10;;;;;;;6.57;1.02;;;9.60;99.90;;;;;;4956336;29;20067;-73
2023/03/09 06:17:37;;;;;;;8.68;1.38;;;9.60;99.90;;;;;;4977153;28;20050;-69
2023/03/09 06:20:05;;;;;;;6.32;1.40;;;9.70;99.90;;;;;;4955916;29;20277;-68
2023/03/09 06:22:35;;;;;;;4.72;1.10;;;9.60;99.90;;;;;;4963425;29;20035;-67
2023/03/09 06:25:02;;;;;;;6.38;1.83;;;9.60;99.90;;;;;;4962784;29;20293;-69
2023/03/09 06:27:27;;;;;;;6.53;1.58;;;9.60;99.90;;;;;;4964609;28;20116;-67
2023/03/09 06:29:54;;;;;;;7.22;1.92;;;9.70;99.90;;;;;;4964622;28;20035;-69
2023/03/09 06:32:20;;;;;;;5.97;1.50;;;9.80;99.90;;;;;;4963266;28;20189;-69
2023/03/09 06:34:47;;;;;;;6.43;1.00;;;9.80;99.90;;;;;;4959204;29;20098;-70
2023/03/09 06:37:15;;;;;;;8.57;1.52;;;9.90;99.90;;;;;;4959040;28;20031;-74
2023/03/09 06:39:41;;;;;;;8.50;1.40;;;10.00;99.90;;;;;;4962540;29;20360;-69
2023/03/09 06:42:08;;;;;;;8.27;2.10;;;10.00;99.90;;;;;;4947110;28;20039;-68
2023/03/09 06:44:42;;;;;;;5.22;1.40;;;10.00;99.90;;;;;;4963153;29;20323;-69
2023/03/09 06:47:09;;;;;;;5.93;1.40;;;10.10;99.90;;;;;;4962612;28;20042;-69
2023/03/09 06:49:35;;;;;;;7.45;1.40;;;10.10;99.90;;;;;;4978854;28;20046;-69
2023/03/09 06:52:06;;;;;;;7.35;1.42;;;10.20;99.90;;;;;;4963811;28;20038;-69
2023/03/09 06:54:32;;;;;;;10.00;1.65;;;10.20;99.90;;;;;;4963190;29;20031;-69
2023/03/09 06:57:09;;;;;;;10.02;1.60;;;10.30;99.90;;;;;;4962961;28;20047;-69
2023/03/09 06:59:38;;;;;;;6.90;1.27;;;10.30;99.90;;;;;;4962904;29;20051;-69
2023/03/09 07:02:04;;;;;;;6.57;1.08;;;10.40;99.90;;;;;;4953148;29;20051;-70
2023/03/09 07:04:29;;;;;;;5.95;1.35;;;10.50;99.90;;;;;;4946498;29;20035;-71
2023/03/09 07:06:55;;;;;;;7.53;1.80;;;10.60;99.90;;;;;;4943899;29;20032;-68
2023/03/09 07:09:21;;;;;;;7.30;1.42;;;10.50;99.90;;;;;;4942228;29;20221;-70
2023/03/09 07:11:48;;;;;;;6.65;1.20;;;10.50;99.90;;;;;;4941939;29;20044;-70
2023/03/09 07:14:14;;;;;;;5.95;0.90;;;10.60;99.90;;;;;;4944645;29;20111;-70
2023/03/09 07:16:39;;;;;;;7.07;1.00;;;10.70;99.90;;;;;;4944672;29;20043;-68
2023/03/09 07:19:05;;;;;;;7.88;1.85;;;10.80;99.90;;;;;;4942029;29;20039;-68
2023/03/09 07:21:31;;;;;;;5.90;1.10;;;10.90;99.90;;;;;;4944433;29;20031;-69
2023/03/09 07:23:57;;;;;;;3.75;1.02;;;11.10;99.90;;;;;;4943423;29;20039;-69
2023/03/09 07:26:22;;;;;;;6.72;1.33;;;11.20;99.90;;;;;;4944085;29;20038;-72
2023/03/09 07:28:48;;;;;;;6.88;1.20;;;11.30;99.90;;;;;;4943935;29;20226;-73
2023/03/09 07:31:14;;;;;;;4.43;0.95;;;11.30;99.90;;;;;;4944427;29;20108;-69
2023/03/09 07:33:39;;;;;;;3.42;0.93;;;11.30;99.90;;;;;;4944027;29;20039;-70
2023/03/09 07:36:07;;;;;;;4.40;0.95;;;11.20;99.90;;;;;;4943358;29;20039;-70
2023/03/09 07:38:33;;;;;;;5.57;1.73;;;11.30;99.90;;;;;;4944236;29;20051;-68
2023/03/09 07:41:00;;;;;;;4.82;1.02;;;11.20;99.90;;;;;;4942516;29;20035;-69
2023/03/09 07:43:26;;;;;;;8.55;1.73;;;11.20;99.90;;;;;;4936772;29;20128;-69
2023/03/09 07:46:05;;;;;;;3.67;0.82;;;11.40;99.90;;;;;;4955975;28;20043;-70
2023/03/09 07:48:31;;;;;;;6.85;1.20;;;11.50;99.90;;;;;;4944272;29;20036;-69
2023/03/09 07:50:58;;;;;;;4.82;0.80;;;11.60;99.90;;;;;;4943609;29;20055;-69
2023/03/09 07:53:24;;;;;;;8.65;1.10;;;11.70;99.90;;;;;;4943814;29;20072;-68
2023/03/09 07:55:57;;;;;;;6.65;0.80;;;11.80;99.90;;;;;;4943579;29;20030;-69
2023/03/09 07:58:23;;;;;;;4.75;1.05;;;11.90;99.90;;;;;;4943354;29;20038;-69
2023/03/09 08:00:49;;;;;;;6.68;1.00;;;12.00;99.90;;;;;;4937675;29;20031;-68
2023/03/09 08:03:14;;;;;;;6.25;1.42;;;12.10;99.90;;;;;;4935389;29;20039;-69
2023/03/09 08:05:41;;;;;;;5.25;0.80;;;12.10;99.90;;;;;;4935160;29;20023;-69
2023/03/09 08:08:07;;;;;;;5.50;0.85;;;12.20;99.90;;;;;;4940696;29;20043;-68
2023/03/09 08:10:33;;;;;;;6.85;1.00;;;12.20;99.90;;;;;;4943984;29;20051;-68
2023/03/09 08:12:59;;;;;;;4.15;0.82;;;12.30;99.90;;;;;;4943527;29;20042;-68
2023/03/09 08:15:25;;;;;;;7.32;1.05;;;12.20;99.90;;;;;;4943920;29;20027;-70
2023/03/09 08:17:51;;;;;;;5.82;1.10;;;12.20;99.90;;;;;;4943072;29;20035;-69
2023/03/09 08:20:17;;;;;;;5.70;0.93;;;12.10;99.90;;;;;;4944123;29;20062;-69
2023/03/09 08:22:43;;;;;;;4.95;0.82;;;12.20;99.90;;;;;;4943740;29;20051;-69
2023/03/09 08:25:09;;;;;;;4.43;0.98;;;12.40;99.90;;;;;;4941915;29;20329;-70
2023/03/09 08:27:43;;;;;;;6.72;0.80;;;12.60;99.90;;;;;;4943593;29;20046;-68
2023/03/09 08:30:11;;;;;;;4.95;0.73;;;12.70;99.90;;;;;;4943220;29;20024;-68
2023/03/09 08:32:37;;;;;;;4.80;0.75;;;12.80;99.50;;;;;;4943746;29;20134;-69
2023/03/09 08:35:03;;;;;;;5.30;0.73;;;12.80;99.50;;;;;;4943800;29;20324;-70
2023/03/09 08:37:28;;;;;;;6.05;1.08;;;12.80;99.50;;;;;;4945662;29;20023;-70
2023/03/09 08:39:54;;;;;;;5.05;1.35;;;12.80;99.30;;;;;;4938096;29;20336;-70
2023/03/09 08:42:20;;;;;;;3.85;0.57;;;12.80;99.40;;;;;;4937623;29;20031;-69
2023/03/09 08:44:46;;;;;;;5.55;1.58;;;12.80;99.70;;;;;;4946018;29;20198;-69
2023/03/09 08:47:12;;;;;;;3.15;0.50;;;12.80;99.60;;;;;;4946911;29;20023;-68
2023/03/09 08:49:40;;;;;;;4.53;0.82;;;12.90;99.30;;;;;;4946567;29;20042;-69
2023/03/09 08:52:07;;;;;;;4.20;0.60;;;13.00;99.00;;;;;;4946290;29;20046;-69
2023/03/09 08:54:33;;;;;;;2.78;0.60;;;12.90;98.80;;;;;;4946833;29;20031;-70
2023/03/09 08:56:58;;;;;;;5.43;0.90;;;12.90;99.20;;;;;;4946152;29;20054;-69
2023/03/09 08:59:24;;;;;;;5.07;1.00;;;12.90;99.10;;;;;;4946847;29;20250;-68
2023/03/09 09:01:50;;;;;;;10.27;1.23;;;13.00;99.70;;;;;;4945638;29;20135;-69
2023/03/09 09:04:15;;;;;;;3.15;1.08;;;13.30;99.30;;;;;;4946390;29;20082;-69
2023/03/09 09:06:41;;;;;;;3.85;0.70;;;13.50;99.40;;;;;;4946306;29;20031;-70
2023/03/09 09:09:08;;;;;;;4.50;0.47;;;13.70;98.60;;;;;;4945743;29;20558;-70
2023/03/09 09:11:34;;;;;;;5.70;1.42;;;13.80;98.10;;;;;;4946516;29;20031;-70
2023/03/09 09:14:00;;;;;;;2.88;0.55;;;13.70;99.90;;;;;;4946212;29;20035;-70
2023/03/09 09:16:29;;;;;;;3.33;0.75;;;13.10;99.90;;;;;;4946388;29;20047;-71
2023/03/09 09:18:56;;;;;;;4.07;0.60;;;12.70;99.90;;;;;;4945800;29;20035;-70
2023/03/09 09:21:27;;;;;;;5.10;0.80;;;12.30;99.90;;;;;;4946333;29;20195;-67
2023/03/09 09:23:55;;;;;;;4.35;0.98;;;12.10;99.90;;;;;;4960263;29;20051;-69
2023/03/09 09:26:20;;;;;;;4.25;0.73;;;11.60;99.90;;;;;;4946237;29;20051;-70
2023/03/09 09:28:47;;;;;;;5.22;0.70;;;11.20;99.90;;;;;;4959418;29;20329;-70
2023/03/09 09:31:24;;;;;;;2.80;0.82;;;11.10;99.90;;;;;;4945970;29;20047;-69
2023/03/09 09:33:56;;;;;;;3.30;0.65;;;11.10;99.90;;;;;;4945426;29;20027;-67
2023/03/09 09:36:22;;;;;;;3.92;0.65;;;11.20;99.90;;;;;;4946128;29;20031;-68
2023/03/09 09:38:48;;;;;;;3.17;0.60;;;11.50;99.90;;;;;;4945754;29;20111;-70
2023/03/09 09:41:40;;;;;;;3.55;0.68;;;11.60;99.90;;;;;;4954026;29;20031;-67
2023/03/09 09:44:12;;;;;;;4.20;0.63;;;12.00;99.90;;;;;;4938579;29;20043;-69
2023/03/09 09:46:39;;;;;;;2.78;0.55;;;12.30;99.90;;;;;;4945503;29;20039;-67
2023/03/09 09:49:19;;;;;;;2.40;0.40;;;12.40;99.90;;;;;;4944977;29;20036;-70
2023/03/09 09:51:54;;;;;;;3.70;0.65;;;12.50;99.90;;;;;;4945741;29;20070;-76
2023/03/09 09:54:38;;;;;;;3.65;0.60;;;12.70;99.90;;;;;;4938980;29;20305;-70
2023/03/09 09:57:17;;;;;;;3.30;0.60;;;12.80;99.90;;;;;;4944831;29;20309;-70
2023/03/09 10:00:11;;;;;;;4.45;0.70;;;12.70;99.90;;;;;;4945503;29;20311;-70
2023/03/09 10:02:55;;;;;;;2.80;0.52;;;12.70;99.90;;;;;;4939161;29;20043;-70
2023/03/09 10:05:42;;;;;;;4.78;0.60;;;12.80;99.90;;;;;;4945224;29;20339;-70
2023/03/09 10:08:41;;;;;;;2.72;0.60;;;13.00;99.90;;;;;;4936106;29;20103;-69
2023/03/09 10:11:41;;;;;;;2.83;0.50;;;13.00;99.90;;;;;;4944523;29;20261;-71
2023/03/09 10:14:13;;;;;;;2.75;0.60;;;13.10;99.90;;;;;;4944362;29;20110;-71
2023/03/09 10:16:43;;;;;;;4.40;0.70;;;13.00;99.90;;;;;;4945010;29;20078;-71
2023/03/09 10:19:31;;;;;;;2.72;0.82;;;13.00;99.90;;;;;;4944876;29;20128;-71
2023/03/09 10:21:59;;;;;;;2.90;0.50;;;13.10;99.90;;;;;;4944289;29;20309;-69
2023/03/09 10:24:38;;;;;;;4.45;0.45;;;13.10;99.90;;;;;;4945311;29;20455;-70
2023/03/09 10:27:27;;;;;;;3.17;0.43;;;13.00;99.90;;;;;;4944561;29;20032;-71
2023/03/09 10:30:14;;;;;;;5.03;0.40;;;12.90;99.90;;;;;;4944130;29;20173;-70
2023/03/09 10:32:39;;;;;;;2.28;0.47;;;13.00;99.90;;;;;;4945030;29;20101;-71
2023/03/09 10:35:25;;;;;;;3.63;0.50;;;13.30;99.90;;;;;;4944678;29;20250;-68
2023/03/09 10:37:52;;;;;;;3.15;0.40;;;13.50;99.90;;;;;;4937849;29;20043;-70
2023/03/09 10:40:24;;;;;;;1.98;0.30;;;13.60;99.90;;;;;;4942974;28;20067;-72
2023/03/09 10:42:50;;;;;;;2.08;0.50;;;13.70;99.90;;;;;;4944679;29;20070;-70
2023/03/09 10:45:22;;;;;;;3.10;0.30;;;13.80;99.90;;;;;;4944456;29;20035;-70
2023/03/09 10:47:59;;;;;;;5.15;0.90;;;13.70;99.40;;;;;;4944604;29;20050;-70
2023/03/09 10:50:29;;;;;;;3.97;0.55;;;13.70;99.50;;;;;;4944880;29;20078;-70
2023/03/09 10:52:56;;;;;;;3.38;0.38;;;13.60;99.70;;;;;;4944423;29;20103;-69
2023/03/09 10:55:42;;;;;;;3.72;0.77;;;13.40;99.70;;;;;;4944581;29;20031;-70
2023/03/09 10:58:17;;;;;;;2.90;0.70;;;13.60;99.90;;;;;;4943549;29;20057;-70
2023/03/09 11:00:55;;;;;;;3.25;0.55;;;13.60;99.30;;;;;;4944705;29;20040;-72
2023/03/09 11:03:42;;;;;;;2.20;0.55;;;13.80;99.50;;;;;;4944243;29;20092;-71
2023/03/09 11:06:12;;;;;;;3.83;0.60;;;14.00;98.50;;;;;;4944262;29;20047;-70
2023/03/09 11:08:40;;;;;;;2.30;0.50;;;14.40;98.10;;;;;;4959021;29;20042;-70
2023/03/09 11:11:14;;;;;;;3.67;0.68;;;14.60;96.00;;;;;;4943678;29;20051;-71
2023/03/09 11:13:46;;;;;;;4.03;0.50;;;15.00;96.00;;;;;;4944111;29;20083;-76
2023/03/09 11:16:21;;;;;;;4.22;0.50;;;15.40;95.60;;;;;;4943535;29;20106;-70
2023/03/09 11:18:48;;;;;;;2.95;0.63;;;15.80;94.00;;;;;;4944311;29;20142;-70
2023/03/09 11:21:21;;;;;;;2.00;0.50;;;16.00;93.80;;;;;;4943619;29;20470;-71
2023/03/09 11:23:52;;;;;;;4.10;0.57;;;16.50;93.20;;;;;;4944212;29;20099;-70
2023/03/09 11:26:31;;;;;;;4.32;0.70;;;17.00;92.20;;;;;;4940634;29;20341;-72
2023/03/09 11:29:00;;;;;;;3.97;0.88;;;17.00;91.60;;;;;;4943597;29;20146;-70
2023/03/09 11:31:31;;;;;;;;;;;17.10;89.70;;;;;;4944652;29;20238;-70
2023/03/09 11:33:58;;;;;;;5.88;0.80;;;16.80;91.10;;;;;;4958206;29;19907;-69
2023/03/09 11:37:08;;;;;;;3.72;0.90;;;16.90;90.30;;;;;;4944052;29;20078;-74
2023/03/09 11:40:17;;;;;;;3.05;0.70;;;17.20;90.00;;;;;;4939551;29;20078;-71
2023/03/09 11:43:10;;;;;;;3.72;0.82;;;17.20;88.60;;;;;;4944010;29;20075;-72
2023/03/09 11:45:37;;;;;;;5.85;0.75;;;17.60;88.00;;;;;;4943819;29;20074;-72
2023/03/09 11:48:24;;;;;;;4.70;0.80;;;17.80;87.70;;;;;;4943506;29;20328;-72
2023/03/09 11:51:05;;;;;;;4.82;1.02;;;18.30;87.30;;;;;;4944001;29;20118;-72
2023/03/09 11:54:00;;;;;;;3.65;0.75;;;18.80;85.50;;;;;;4944252;29;20043;-70
2023/03/09 11:56:42;;;;;;;4.97;0.70;;;18.90;83.90;;;;;;4922226;29;20309;-71
2023/03/09 11:59:14;;;;;;;4.18;0.65;;;19.30;82.20;;;;;;4935848;29;20047;-71
2023/03/09 12:02:01;;;;;;;2.72;0.35;;;18.80;81.30;;;;;;4943599;29;20070;-71
2023/03/09 12:04:27;;;;;;;4.05;0.57;;;17.70;83.30;;;;;;4943901;29;20045;-71
2023/03/09 12:06:53;;;;;;;5.50;0.70;;;17.50;84.60;;;;;;4943829;29;20114;-73
2023/03/09 12:09:32;;;;;;;4.60;0.68;;;17.60;84.80;;;;;;4944350;29;20039;-74
2023/03/09 12:12:25;;;;;;;2.85;0.40;;;17.80;83.90;;;;;;4935950;29;20077;-72
2023/03/09 12:14:57;;;;;;;3.58;0.60;;;17.30;84.50;;;;;;4947838;29;20205;-72
2023/03/09 12:17:31;;;;;;;3.97;0.50;;;16.40;86.20;;;;;;4947376;29;20051;-72
2023/03/09 12:19:58;;;;;;;4.07;0.80;;;16.20;87.50;;;;;;4945711;29;20024;-72
2023/03/09 12:22:32;;;;;;;2.40;0.40;;;16.00;87.70;;;;;;4946801;29;20024;-70
2023/03/09 12:25:04;;;;;;;3.38;0.40;;;15.70;88.70;;;;;;4947001;29;20028;-70
2023/03/09 12:27:34;;;;;;;2.83;0.60;;;15.80;89.50;;;;;;4947046;29;20091;-73
2023/03/09 12:29:59;;;;;;;2.97;0.68;;;16.20;88.30;;;;;;4947085;29;20035;-72
2023/03/09 12:32:25;;;;;;;2.80;0.50;;;16.90;87.00;;;;;;4960186;29;20051;-71
2023/03/09 12:34:54;;;;;;;4.13;0.60;;;17.50;85.10;;;;;;4947291;29;20324;-72
2023/03/09 12:37:35;;;;;;;3.15;0.40;;;18.10;83.00;;;;;;4946459;29;20035;-72
2023/03/09 12:40:18;;;;;;;4.70;0.80;;;18.40;81.20;;;;;;4947086;29;20036;-71
2023/03/09 12:42:50;;;;;;;4.65;0.80;;;18.70;80.60;;;;;;4947059;29;20131;-71
2023/03/09 12:45:18;;;;;;;3.20;0.52;;;18.80;79.80;;;;;;4946646;29;20344;-70
2023/03/09 12:48:11;;;;;;;2.67;0.50;;;18.50;79.80;;;;;;4946408;29;20032;-71
2023/03/09 12:50:42;;;;;;;3.20;0.57;;;18.60;79.30;;;;;;4946798;29;20039;-71
2023/03/09 12:53:17;;;;;;;4.60;1.20;;;19.00;79.70;;;;;;4946069;29;20035;-71
2023/03/09 12:56:02;;;;;;;3.05;0.70;;;18.90;79.50;;;;;;4946876;29;20035;-72
2023/03/09 12:58:36;;;;;;;5.25;0.73;;;19.00;78.30;;;;;;4946841;29;20034;-72
2023/03/09 13:01:09;;;;;;;3.20;0.68;;;18.30;80.00;;;;;;4959492;29;20051;-72
2023/03/09 13:03:46;;;;;;;3.45;0.65;;;17.50;82.10;;;;;;4957681;29;20063;-71
2023/03/09 13:06:38;;;;;;;3.80;0.80;;;16.80;84.70;;;;;;4933129;29;20032;-73
2023/03/09 13:09:14;;;;;;;4.90;1.20;;;16.60;86.30;;;;;;4945640;29;20076;-73
2023/03/09 13:11:48;;;;;;;3.58;0.82;;;16.70;86.30;;;;;;4946462;29;20055;-72
2023/03/09 13:14:24;;;;;;;3.10;0.60;;;17.00;85.50;;;;;;4946133;29;20257;-73
2023/03/09 13:17:01;;;;;;;4.05;0.55;;;17.40;85.00;;;;;;4943485;29;20042;-72
2023/03/09 13:19:26;;;;;;;2.15;0.70;;;17.70;84.20;;;;;;4943583;29;20038;-74
2023/03/09 13:21:55;;;;;;;4.47;0.70;;;18.10;82.80;;;;;;4945758;29;20262;-74
2023/03/09 13:24:24;;;;;;;3.65;0.55;;;17.20;82.90;;;;;;4946027;29;20027;-74
2023/03/09 13:26:54;;;;;;;3.33;0.77;;;16.90;83.90;;;;;;4961446;29;20042;-75
2023/03/09 13:29:25;;;;;;;4.32;1.20;;;16.80;84.00;;;;;;4945300;29;20287;-76
2023/03/09 13:31:52;;;;;;;3.53;0.98;;;16.50;85.40;;;;;;4945959;29;20321;-72
2023/03/09 13:34:24;;;;;;;4.80;1.17;;;16.10;86.30;;;;;;4945265;29;20043;-72
2023/03/09 13:36:52;;;;;;;3.85;0.55;;;15.90;87.20;;;;;;4938843;29;20016;-70
2023/03/09 13:39:20;;;;;;;3.90;0.60;;;15.90;87.20;;;;;;4940141;29;20213;-73
2023/03/09 13:41:46;;;;;;;;;;;16.00;87.70;;;;;;4945493;29;20202;-71
2023/03/09 13:44:17;;;;;;;4.35;0.65;;;15.80;87.70;;;;;;4944429;29;19906;-73
2023/03/09 13:46:48;;;;;;;4.63;0.70;;;15.60;88.10;;;;;;4946178;29;20040;-71
2023/03/09 13:49:17;;;;;;;4.45;0.90;;;15.40;88.50;;;;;;4945083;29;20039;-72
2023/03/09 13:51:49;;;;;;;3.25;0.57;;;15.40;89.40;;;;;;4945634;29;20032;-72
2023/03/09 13:54:23;;;;;;;4.30;1.08;;;15.20;89.50;;;;;;4944385;29;20043;-71
2023/03/09 13:57:13;;;;;;;4.43;0.90;;;15.00;90.90;;;;;;4937703;29;20028;-73
2023/03/09 14:00:25;;;;;;;3.50;0.65;;;14.90;93.00;;;;;;4945752;29;20039;-70
2023/03/09 14:02:53;;;;;;;2.22;0.57;;;14.40;95.10;;;;;;4920485;29;20307;-73
2023/03/09 14:05:23;;;;;;;5.82;1.23;;;13.60;98.10;;;;;;4934402;29;20051;-74
2023/03/09 14:07:54;;;;;;;5.35;0.98;;;13.40;99.60;;;;;;4939251;29;20028;-73
2023/03/09 14:10:25;;;;;;;3.65;0.77;;;13.50;98.80;;;;;;4934742;29;20218;-72
2023/03/09 14:13:16;;;;;;;3.17;0.50;;;14.00;98.00;;;;;;4939001;29;20097;-71
2023/03/09 14:15:46;;;;;;;4.50;0.60;;;15.00;96.00;;;;;;4915819;29;20111;-76
2023/03/09 14:18:47;;;;;;;3.97;0.82;;;15.90;94.10;;;;;;4936299;29;20321;-74
2023/03/09 14:21:22;;;;;;;3.63;0.90;;;17.00;91.60;;;;;;4920120;29;20214;-73
2023/03/09 14:23:49;;;;;;;2.45;0.50;;;17.20;91.20;;;;;;4936829;29;20042;-72
2023/03/09 14:26:27;;;;;;;4.32;0.80;;;17.50;90.70;;;;;;4943532;29;20028;-72
2023/03/09 14:29:02;;;;;;;4.90;0.95;;;17.40;89.80;;;;;;4945276;29;20035;-74
2023/03/09 14:31:28;;;;;;;3.55;0.80;;;17.10;88.40;;;;;;4944547;29;20107;-73
2023/03/09 14:34:05;;;;;;;3.10;0.80;;;17.40;88.20;;;;;;4943779;29;20039;-74
2023/03/09 14:36:59;;;;;;;3.47;0.70;;;19.10;84.80;;;;;;4945015;29;20102;-70
2023/03/09 14:39:31;;;;;;;4.70;0.60;;;20.90;78.90;;;;;;4942940;29;20039;-70
2023/03/09 14:42:17;;;;;;;3.63;0.70;;;19.70;79.00;;;;;;4945141;29;20043;-72
2023/03/09 14:44:59;;;;;;;3.30;0.68;;;18.60;81.30;;;;;;4945004;29;20034;-72
2023/03/09 14:47:25;;;;;;;4.53;0.63;;;17.70;84.20;;;;;;4959330;29;20035;-70
2023/03/09 14:49:52;;;;;;;2.22;0.50;;;18.50;82.50;;;;;;4944840;29;20062;-72
2023/03/09 14:52:20;;;;;;;4.10;0.70;;;18.20;83.40;;;;;;4942791;29;20074;-71
2023/03/09 14:54:46;;;;;;;4.32;0.60;;;18.50;82.10;;;;;;4944491;29;20198;-71
2023/03/09 14:57:14;;;;;;;5.75;1.17;;;18.80;81.30;;;;;;4943959;29;20209;-72
2023/03/09 14:59:40;;;;;;;3.22;0.80;;;18.20;82.70;;;;;;4944817;29;20058;-72
2023/03/09 15:02:08;;;;;;;4.07;0.98;;;17.60;84.60;;;;;;4944067;29;20345;-71
2023/03/09 15:04:35;;;;;;;2.70;0.52;;;17.90;84.90;;;;;;4944847;29;20024;-71
2023/03/09 15:07:07;;;;;;;3.40;0.55;;;19.10;81.80;;;;;;4944495;29;20023;-72
2023/03/09 15:09:34;;;;;;;3.15;0.55;;;19.70;79.70;;;;;;4944580;29;20031;-70
2023/03/09 15:12:04;;;;;;;3.42;0.73;;;20.40;78.50;;;;;;4944226;29;20194;-71
2023/03/09 15:14:37;;;;;;;2.85;0.70;;;21.20;76.40;;;;;;4944099;29;20303;-69
2023/03/09 15:17:04;;;;;;;3.25;0.70;;;22.00;74.10;;;;;;4944504;29;20051;-70
2023/03/09 15:19:30;;;;;;;2.60;0.60;;;22.10;73.30;;;;;;4943438;29;20034;-70
2023/03/09 15:22:00;;;;;;;4.18;0.90;;;22.90;72.20;;;;;;4943995;29;20019;-70
2023/03/09 15:24:27;;;;;;;4.75;0.82;;;23.20;70.20;;;;;;4942647;29;20035;-72
2023/03/09 15:26:57;;;;;;;5.03;0.82;;;22.60;71.00;;;;;;4944114;29;20171;-73
2023/03/09 15:29:23;;;;;;;3.55;0.80;;;21.80;71.80;;;;;;4943562;29;20043;-71
2023/03/09 15:31:49;;;;;;;4.72;1.00;;;21.70;72.90;;;;;;4944028;29;20175;-72
2023/03/09 15:34:14;;;;;;;3.70;0.70;;;21.20;72.60;;;;;;4943794;29;20031;-70
2023/03/09 15:36:40;;;;;;;2.60;0.60;;;20.70;73.70;;;;;;4944371;29;20024;-71
2023/03/09 15:39:09;;;;;;;5.90;0.77;;;20.00;73.50;;;;;;4944248;29;20039;-72
2023/03/09 15:41:35;;;;;;;4.60;0.80;;;18.60;76.40;;;;;;4944121;29;20385;-74
2023/03/09 15:44:01;;;;;;;3.00;0.60;;;17.50;79.90;;;;;;4945228;29;20040;-71
2023/03/09 15:46:27;;;;;;;3.95;0.70;;;16.40;82.50;;;;;;4947424;29;20078;-73
2023/03/09 15:48:53;;;;;;;6.13;0.93;;;15.70;85.30;;;;;;4947612;29;20210;-71
2023/03/09 15:51:21;;;;;;;3.72;0.65;;;15.30;86.50;;;;;;4946449;29;20035;-72
2023/03/09 15:53:46;;;;;;;3.10;0.80;;;15.30;87.20;;;;;;4947822;29;20079;-72
2023/03/09 15:56:14;;;;;;;3.38;0.93;;;16.00;85.50;;;;;;4946846;29;20095;-72
2023/03/09 15:58:40;;;;;;;2.63;0.60;;;16.40;84.70;;;;;;4947484;29;20118;-72
2023/03/09 16:01:11;;;;;;;4.63;0.75;;;17.60;81.70;;;;;;4947718;29;20031;-72
2023/03/09 16:03:39;;;;;;;2.38;0.73;;;18.40;79.40;;;;;;4948206;29;20086;-71
2023/03/09 16:06:05;;;;;;;3.95;1.00;;;19.10;77.70;;;;;;4947922;29;20035;-72
2023/03/09 16:08:31;;;;;;;4.90;0.90;;;19.50;76.40;;;;;;4947081;29;20051;-71
2023/03/09 16:10:57;;;;;;;6.57;1.08;;;19.90;75.80;;;;;;4947618;29;20050;-71
2023/03/09 16:13:23;;;;;;;4.90;1.10;;;20.50;73.70;;;;;;4946872;29;20329;-72
2023/03/09 16:15:51;;;;;;;4.53;1.02;;;20.70;73.80;;;;;;4947232;29;20071;-71
2023/03/09 16:18:17;;;;;;;5.88;1.08;;;20.10;73.70;;;;;;4946965;29;20044;-72
2023/03/09 16:20:44;;;;;;;5.25;1.25;;;19.70;75.10;;;;;;4947470;29;20036;-71
2023/03/09 16:23:11;;;;;;;4.78;1.17;;;19.40;75.60;;;;;;4947233;29;20028;-72
2023/03/09 16:25:38;;;;;;;5.43;0.85;;;19.40;75.40;;;;;;4947450;29;20039;-72
2023/03/09 16:28:04;;;;;;;5.50;1.10;;;19.00;75.70;;;;;;4947116;29;20036;-72
2023/03/09 16:30:30;;;;;;;3.72;1.00;;;18.20;77.60;;;;;;4946706;29;20032;-72
2023/03/09 16:32:56;;;;;;;4.47;1.00;;;17.60;79.30;;;;;;4947180;29;20055;-73
2023/03/09 16:35:23;;;;;;;7.75;1.50;;;17.30;79.80;;;;;;4946645;29;20051;-70
2023/03/09 16:37:50;;;;;;;3.40;0.90;;;16.60;80.60;;;;;;4947186;29;20035;-72
2023/03/09 16:40:16;;;;;;;4.65;1.20;;;16.00;82.20;;;;;;4946499;29;20036;-72
2023/03/09 16:42:42;;;;;;;7.28;1.10;;;15.50;83.80;;;;;;4946823;29;20043;-71
2023/03/09 16:45:09;;;;;;;6.68;1.20;;;15.10;84.80;;;;;;4946707;29;20036;-71
2023/03/09 16:47:38;;;;;;;6.95;1.30;;;14.80;84.80;;;;;;4946460;29;20087;-71
2023/03/09 16:50:05;;;;;;;;;;;14.60;85.70;;;;;;4947193;29;20120;-70
2023/03/09 16:52:30;;;;;;;7.60;1.23;;;14.40;86.70;;;;;;4946462;29;19906;-71
2023/03/09 16:54:59;;;;;;;4.65;1.10;;;14.40;87.10;;;;;;4936926;29;20195;-71
2023/03/09 16:57:25;;;;;;;5.70;1.50;;;14.30;87.60;;;;;;4956801;29;20282;-71
2023/03/09 16:59:58;;;;;;;5.85;1.17;;;14.20;87.50;;;;;;4946375;29;20031;-71
2023/03/09 17:02:26;;;;;;;8.50;1.70;;;14.10;88.10;;;;;;4945165;29;20337;-71
2023/03/09 17:04:52;;;;;;;5.55;1.13;;;13.90;88.20;;;;;;4944051;29;20043;-75
2023/03/09 17:07:20;;;;;;;6.35;1.17;;;13.90;89.10;;;;;;4950547;29;20110;-74
2023/03/09 17:09:48;;;;;;;8.27;1.50;;;13.70;89.10;;;;;;4954590;29;20015;-75
2023/03/09 17:12:15;;;;;;;;;;;13.60;89.50;;;;;;4946779;29;20036;-76
2023/03/09 17:14:40;;;;;;;6.47;1.50;;;13.50;89.90;;;;;;4946639;29;19907;-73
2023/03/09 17:17:06;;;;;;;4.65;1.33;;;13.40;90.00;;;;;;4959622;29;20078;-74
2023/03/09 17:19:32;;;;;;;6.60;1.23;;;13.30;90.10;;;;;;4945380;29;20211;-74
2023/03/09 17:21:58;;;;;;;7.20;1.25;;;13.20;90.30;;;;;;4946382;29;20039;-73
2023/03/09 17:24:32;;;;;;;6.32;1.05;;;13.10;90.20;;;;;;4945805;29;20028;-72
2023/03/09 17:26:58;;;;;;;7.40;1.40;;;13.10;90.20;;;;;;4945885;29;20059;-71
2023/03/09 17:29:27;;;;;;;5.85;1.63;;;13.00;90.40;;;;;;4945874;29;20091;-71
2023/03/09 17:31:56;;;;;;;9.48;1.75;;;13.00;90.30;;;;;;4945920;29;20350;-71
2023/03/09 17:34:23;;;;;;;9.43;1.50;;;12.90;90.60;;;;;;4945702;29;20023;-71
2023/03/09 17:36:48;;;;;;;8.32;1.75;;;12.90;90.50;;;;;;4946177;29;20046;-71
2023/03/09 17:39:15;;;;;;;7.05;1.48;;;12.80;90.70;;;;;;4946491;29;20027;-71
2023/03/09 17:41:42;;;;;;;7.38;1.42;;;12.70;90.80;;;;;;4942729;29;20067;-71
2023/03/09 17:44:08;;;;;;;5.80;1.60;;;12.60;90.90;;;;;;4946494;29;20051;-70
2023/03/09 17:46:35;;;;;;;6.15;1.50;;;12.60;91.10;;;;;;4940081;29;20348;-69
2023/03/09 17:49:01;;;;;;;8.55;1.98;;;12.50;91.30;;;;;;4935201;29;20090;-71
2023/03/09 17:51:26;;;;;;;6.32;1.60;;;12.40;91.70;;;;;;4932371;29;20362;-73
2023/03/09 17:53:52;;;;;;;7.22;1.67;;;12.30;91.50;;;;;;4933627;29;20051;-70
2023/03/09 17:56:20;;;;;;;8.02;1.77;;;12.20;91.70;;;;;;4941624;29;20039;-70
2023/03/09 17:58:47;;;;;;;5.73;1.67;;;12.20;91.80;;;;;;4929769;29;20036;-71
2023/03/09 18:01:20;;;;;;;4.72;1.73;;;12.10;91.90;;;;;;4943196;29;20229;-70
2023/03/09 18:03:46;;;;;;;8.30;1.80;;;12.00;92.10;;;;;;4940618;29;20052;-71
2023/03/09 18:06:27;;;;;;;6.70;1.70;;;11.80;92.40;;;;;;4941787;29;20063;-71
2023/03/09 18:08:54;;;;;;;7.22;1.35;;;11.70;92.70;;;;;;4944209;29;20036;-71
2023/03/09 18:11:22;;;;;;;5.80;1.48;;;11.70;93.00;;;;;;4932919;29;20044;-70
2023/03/09 18:13:52;;;;;;;7.47;1.67;;;11.70;93.10;;;;;;4936322;29;20182;-71
2023/03/09 18:16:19;;;;;;;8.85;1.88;;;11.60;93.60;;;;;;4942209;29;20048;-70
2023/03/09 18:18:45;;;;;;;8.40;2.08;;;11.60;93.60;;;;;;4945478;29;20333;-71
2023/03/09 18:21:12;;;;;;;5.35;1.52;;;11.50;93.50;;;;;;4948372;29;20043;-71
2023/03/09 18:23:38;;;;;;;9.43;2.38;;;11.40;94.00;;;;;;4943698;29;20050;-71
2023/03/09 18:26:05;;;;;;;7.53;2.20;;;11.40;94.20;;;;;;4943219;29;20055;-71
2023/03/09 18:28:32;;;;;;;13.07;5.78;;;11.40;94.20;;;;;;4949876;29;20224;-76
2023/03/09 18:30:58;;;;;;;5.22;2.42;;;11.40;94.10;;;;;;4939582;29;20332;-70
2023/03/09 18:33:23;;;;;;;8.93;3.90;;;11.40;94.00;;;;;;4938710;29;20035;-71
2023/03/09 18:35:49;;;;;;;6.55;2.15;;;11.40;94.10;;;;;;4944640;29;20049;-72